Time;durP1;ratioP1;P1;durP2;ratioP2;P2;SDS_P1;SDS_P2;PMS_P1;PMS_P2;Temp;Humidity;BMP_temperature;BMP_pressure;BME280_temperature;BME280_humidity;BME280_pressure;Samples;Min_cycle;Max_cycle;Signal;HPM_P1;HPM_P2
2021/05/03 00:02:19;;;;;;;8.98;6.43;;;8.10;97.00;;;;;;5093849;28;20079;-80
2021/05/03 00:04:46;;;;;;;9.70;6.45;;;8.20;96.90;;;;;;5092958;28;20371;-81
2021/05/03 00:07:13;;;;;;;7.88;5.57;;;8.10;96.80;;;;;;5094162;28;20090;-81
2021/05/03 00:09:40;;;;;;;8.55;5.70;;;8.00;96.70;;;;;;5096582;28;20091;-81
2021/05/03 00:12:09;;;;;;;8.55;6.03;;;8.10;96.80;;;;;;5104930;28;20048;-82
2021/05/03 00:14:35;;;;;;;9.07;6.20;;;8.10;96.80;;;;;;5100931;28;20047;-82
2021/05/03 00:17:02;;;;;;;8.10;5.97;;;8.10;96.70;;;;;;5091621;28;20075;-82
2021/05/03 00:19:29;;;;;;;8.98;6.15;;;8.00;96.70;;;;;;5099160;28;20394;-82
2021/05/03 00:21:56;;;;;;;8.95;6.53;;;8.00;96.70;;;;;;5098232;28;20604;-82
2021/05/03 00:24:23;;;;;;;8.18;5.72;;;8.10;96.60;;;;;;5097141;28;20075;-83
2021/05/03 00:26:50;;;;;;;9.02;5.72;;;8.10;96.60;;;;;;5097139;28;20113;-82
2021/05/03 00:29:16;;;;;;;8.75;5.75;;;8.00;96.60;;;;;;5097034;28;20496;-82
2021/05/03 00:31:43;;;;;;;8.68;5.88;;;7.90;96.60;;;;;;5096621;28;20075;-81
2021/05/03 00:34:10;;;;;;;9.02;5.53;;;7.90;96.60;;;;;;5096677;28;20068;-81
2021/05/03 00:36:37;;;;;;;9.30;6.05;;;7.90;96.70;;;;;;5097100;28;20139;-81
2021/05/03 00:39:05;;;;;;;8.27;6.20;;;7.80;96.60;;;;;;5097595;28;20098;-82
2021/05/03 00:41:32;;;;;;;8.85;6.25;;;7.80;96.60;;;;;;5096760;28;20501;-82
2021/05/03 00:43:59;;;;;;;7.03;5.63;;;7.80;96.60;;;;;;5076272;28;20458;-83
2021/05/03 00:46:26;;;;;;;9.38;6.63;;;7.70;96.60;;;;;;5096744;28;20051;-84
2021/05/03 00:48:53;;;;;;;9.82;6.80;;;7.80;96.70;;;;;;5097993;28;20107;-83
2021/05/03 00:51:19;;;;;;;9.27;6.55;;;7.70;96.70;;;;;;5097164;28;20076;-83
2021/05/03 00:53:46;;;;;;;8.55;6.32;;;7.70;96.80;;;;;;5096923;28;20083;-83
2021/05/03 00:56:14;;;;;;;10.25;6.82;;;7.70;96.90;;;;;;5096686;28;20139;-83
2021/05/03 00:58:42;;;;;;;9.15;5.88;;;7.60;97.00;;;;;;5096734;28;20075;-83
2021/05/03 01:01:08;;;;;;;10.27;6.57;;;7.60;97.10;;;;;;5096605;28;20130;-84
2021/05/03 01:03:35;;;;;;;8.32;6.43;;;7.50;97.00;;;;;;5096986;28;20150;-85
2021/05/03 01:06:02;;;;;;;9.30;6.50;;;7.50;97.10;;;;;;5092866;28;20166;-83
2021/05/03 01:08:29;;;;;;;9.15;6.47;;;7.50;97.10;;;;;;5096510;28;20043;-84
2021/05/03 01:10:55;;;;;;;10.43;6.95;;;7.60;97.20;;;;;;5096104;28;20122;-84
2021/05/03 01:13:23;;;;;;;9.98;6.80;;;7.40;97.10;;;;;;5080004;28;20064;-84
2021/05/03 01:15:50;;;;;;;7.85;5.80;;;7.40;97.20;;;;;;5097143;28;20079;-84
2021/05/03 01:18:22;;;;;;;8.43;6.07;;;7.30;97.20;;;;;;5097138;28;20131;-86
2021/05/03 01:20:49;;;;;;;14.52;6.45;;;7.30;97.20;;;;;;5098045;28;20048;-84
2021/05/03 01:23:17;;;;;;;9.88;6.03;;;7.40;97.10;;;;;;5096018;28;20537;-84
2021/05/03 01:25:44;;;;;;;9.07;6.03;;;7.40;97.10;;;;;;5096763;28;20083;-84
2021/05/03 01:28:10;;;;;;;8.23;5.75;;;7.30;97.10;;;;;;5096341;28;20075;-83
2021/05/03 01:30:41;;;;;;;8.02;5.05;;;7.50;97.20;;;;;;5053125;28;20116;-83
2021/05/03 01:33:11;;;;;;;8.02;5.53;;;7.40;97.10;;;;;;5092897;28;20564;-83
2021/05/03 01:35:40;;;;;;;7.35;4.90;;;7.50;97.00;;;;;;5079063;28;20044;-83
2021/05/03 01:38:09;;;;;;;7.43;4.60;;;7.50;97.10;;;;;;5111547;28;20478;-82
2021/05/03 01:40:40;;;;;;;9.85;4.85;;;7.40;97.00;;;;;;5096445;28;20489;-84
2021/05/03 01:43:12;;;;;;;8.82;5.20;;;7.50;97.00;;;;;;5096865;28;20052;-84
2021/05/03 01:45:39;;;;;;;7.22;4.80;;;7.50;96.90;;;;;;5081514;28;20044;-85
2021/05/03 01:48:08;;;;;;;7.75;5.10;;;7.50;96.80;;;;;;5095431;28;20044;-84
2021/05/03 01:50:35;;;;;;;8.15;5.25;;;7.50;96.80;;;;;;5095367;28;20482;-85
2021/05/03 01:53:03;;;;;;;8.32;5.43;;;7.60;96.90;;;;;;5095743;28;20076;-85
2021/05/03 01:55:31;;;;;;;6.95;4.93;;;7.50;96.60;;;;;;5096511;28;20072;-84
2021/05/03 01:57:58;;;;;;;7.93;5.30;;;7.40;96.60;;;;;;5096160;28;20090;-84
2021/05/03 02:00:25;;;;;;;9.30;5.80;;;7.50;96.60;;;;;;5099963;28;20106;-86
2021/05/03 02:02:52;;;;;;;6.97;5.30;;;7.50;96.50;;;;;;5102027;28;20044;-84
2021/05/03 02:05:21;;;;;;;7.60;5.32;;;7.40;96.50;;;;;;5095616;28;20136;-83
2021/05/03 02:07:57;;;;;;;7.80;5.40;;;7.30;96.50;;;;;;5098150;28;20079;-84
2021/05/03 02:10:24;;;;;;;7.55;5.20;;;7.40;96.50;;;;;;5106604;28;20375;-84
2021/05/03 02:12:50;;;;;;;8.30;6.13;;;7.40;96.60;;;;;;5105675;28;20059;-86
2021/05/03 02:15:18;;;;;;;8.85;6.18;;;7.40;96.50;;;;;;5106303;28;20067;-84
2021/05/03 02:17:45;;;;;;;8.63;6.40;;;7.30;96.50;;;;;;5098885;28;20086;-84
2021/05/03 02:20:14;;;;;;;8.15;5.82;;;7.20;96.60;;;;;;5094151;28;20502;-85
2021/05/03 02:22:40;;;;;;;8.88;6.13;;;7.20;96.70;;;;;;5093049;28;20090;-85
2021/05/03 02:25:08;;;;;;;8.80;5.90;;;7.20;96.70;;;;;;5096071;28;20087;-85
2021/05/03 02:27:35;;;;;;;8.88;6.03;;;7.10;96.80;;;;;;5091892;28;20076;-85
2021/05/03 02:30:02;;;;;;;8.70;6.20;;;7.20;96.80;;;;;;5091826;28;20076;-86
2021/05/03 02:32:30;;;;;;;9.88;6.65;;;7.10;96.90;;;;;;5095954;28;20143;-87
2021/05/03 02:34:57;;;;;;;9.35;6.53;;;7.10;96.80;;;;;;5097806;28;20075;-87
2021/05/03 02:37:24;;;;;;;8.80;6.13;;;7.10;96.80;;;;;;5100661;28;20044;-86
2021/05/03 02:39:51;;;;;;;10.30;6.60;;;7.10;96.80;;;;;;5094299;28;20063;-85
2021/05/03 02:42:18;;;;;;;9.88;7.10;;;7.10;96.80;;;;;;5095613;28;20123;-85
2021/05/03 02:44:45;;;;;;;10.40;6.38;;;7.20;96.80;;;;;;5094768;28;20102;-85
2021/05/03 02:47:12;;;;;;;9.23;6.50;;;7.20;96.90;;;;;;5090507;28;20451;-84
2021/05/03 02:49:39;;;;;;;9.18;6.65;;;7.20;96.90;;;;;;5103404;28;20083;-85
2021/05/03 02:52:06;;;;;;;10.90;6.90;;;7.10;96.90;;;;;;5093948;28;20488;-85
2021/05/03 02:54:33;;;;;;;9.48;6.80;;;7.10;96.80;;;;;;5093812;28;20436;-84
2021/05/03 02:57:00;;;;;;;9.75;6.30;;;7.10;96.80;;;;;;5094211;28;20081;-83
2021/05/03 02:59:27;;;;;;;11.80;6.53;;;7.20;96.90;;;;;;5094745;28;20549;-85
2021/05/03 03:01:54;;;;;;;14.10;7.53;;;7.00;96.80;;;;;;5093310;28;20125;-82
2021/05/03 03:04:21;;;;;;;9.95;6.72;;;7.10;96.80;;;;;;5092589;28;20051;-82
2021/05/03 03:06:49;;;;;;;10.73;7.40;;;7.10;96.80;;;;;;5092989;28;20095;-82
2021/05/03 03:09:16;;;;;;;10.80;7.28;;;7.10;96.80;;;;;;5092177;28;20102;-83
2021/05/03 03:11:46;;;;;;;10.98;7.47;;;7.00;96.80;;;;;;5072067;28;20498;-83
2021/05/03 03:14:13;;;;;;;11.63;6.70;;;7.10;96.80;;;;;;5091204;28;20047;-83
2021/05/03 03:16:39;;;;;;;10.13;6.88;;;7.00;96.80;;;;;;5092606;28;20477;-85
2021/05/03 03:19:06;;;;;;;10.48;7.13;;;7.00;96.80;;;;;;5089464;28;20055;-84
2021/05/03 03:21:33;;;;;;;10.63;6.90;;;6.90;96.80;;;;;;5093417;28;20426;-84
2021/05/03 03:24:01;;;;;;;9.82;6.95;;;6.90;96.90;;;;;;5093146;28;20496;-84
2021/05/03 03:26:28;;;;;;;9.70;7.05;;;6.80;97.30;;;;;;5092190;28;20079;-85
2021/05/03 03:28:54;;;;;;;10.00;6.88;;;6.80;97.30;;;;;;5090312;28;20497;-84
2021/05/03 03:31:21;;;;;;;9.95;7.13;;;6.80;97.20;;;;;;5093517;28;20087;-84
2021/05/03 03:33:48;;;;;;;11.18;6.72;;;6.80;97.10;;;;;;5093580;28;20143;-83
2021/05/03 03:36:14;;;;;;;10.15;7.00;;;6.70;97.20;;;;;;5103520;28;20424;-83
2021/05/03 03:38:41;;;;;;;10.73;7.80;;;6.70;97.30;;;;;;5101358;28;20071;-82
2021/05/03 03:41:09;;;;;;;10.05;7.30;;;6.60;97.40;;;;;;5092180;28;20056;-83
2021/05/03 03:43:36;;;;;;;11.23;7.63;;;6.40;97.40;;;;;;5091490;28;20083;-81
2021/05/03 03:46:02;;;;;;;11.00;7.95;;;6.50;97.50;;;;;;5092230;28;20071;-81
2021/05/03 03:48:29;;;;;;;10.55;7.55;;;6.50;97.60;;;;;;5094310;28;20135;-81
2021/05/03 03:50:56;;;;;;;12.07;7.50;;;6.40;97.70;;;;;;5095902;28;20533;-79
2021/05/03 03:53:22;;;;;;;11.07;8.13;;;6.50;97.80;;;;;;5095957;28;20131;-81
2021/05/03 03:55:49;;;;;;;12.25;8.30;;;6.50;97.70;;;;;;5095113;28;20052;-80
2021/05/03 03:58:17;;;;;;;10.85;7.63;;;6.40;97.60;;;;;;5093369;28;20135;-83
2021/05/03 04:00:43;;;;;;;11.27;8.45;;;6.50;97.70;;;;;;5096214;28;20051;-82
2021/05/03 04:03:10;;;;;;;12.30;7.55;;;6.50;97.70;;;;;;5096314;28;20430;-83
2021/05/03 04:05:56;;;;;;;10.30;7.30;;;6.30;97.70;;;;;;5096139;28;20090;-81
2021/05/03 04:08:26;;;;;;;10.55;6.75;;;6.50;97.70;;;;;;5096221;28;20036;-81
2021/05/03 04:11:06;;;;;;;10.60;7.55;;;6.50;97.70;;;;;;5090740;28;20059;-85
2021/05/03 04:13:59;;;;;;;10.75;7.25;;;6.50;97.60;;;;;;5087266;28;20454;-81
2021/05/03 04:22:11;;;;;;;10.52;7.45;;;6.50;97.40;;;;;;5092941;28;19945;-83
2021/05/03 04:24:42;;;;;;;10.73;7.68;;;6.60;97.30;;;;;;5093167;28;20051;-84
2021/05/03 04:27:09;;;;;;;11.77;7.20;;;6.50;97.30;;;;;;5096677;28;20664;-83
2021/05/03 04:29:36;;;;;;;10.25;7.32;;;6.50;97.30;;;;;;5096598;28;20079;-84
2021/05/03 04:32:04;;;;;;;9.75;6.68;;;6.40;97.30;;;;;;5095834;28;20501;-83
2021/05/03 04:34:31;;;;;;;10.55;7.82;;;6.50;97.50;;;;;;5095567;28;20105;-83
2021/05/03 04:36:57;;;;;;;13.52;7.32;;;6.60;97.40;;;;;;5103750;28;20093;-84
2021/05/03 04:39:24;;;;;;;9.85;7.47;;;6.60;97.40;;;;;;5105705;28;20051;-84
2021/05/03 04:41:51;;;;;;;11.35;8.20;;;6.50;97.40;;;;;;5108992;28;20048;-84
2021/05/03 04:44:18;;;;;;;11.23;7.45;;;6.60;97.40;;;;;;5122649;28;20056;-84
2021/05/03 04:46:48;;;;;;;10.57;7.18;;;6.50;97.40;;;;;;5097471;28;20055;-84
2021/05/03 04:49:15;;;;;;;10.15;7.05;;;6.50;97.50;;;;;;5111991;28;20565;-84
2021/05/03 04:51:42;;;;;;;11.43;6.95;;;6.50;97.40;;;;;;5111628;28;20091;-83
2021/05/03 04:54:09;;;;;;;10.20;7.18;;;6.40;97.50;;;;;;5095385;28;20072;-84
2021/05/03 04:56:36;;;;;;;10.30;6.93;;;6.60;97.40;;;;;;5098401;28;20079;-84
2021/05/03 04:59:03;;;;;;;11.43;7.72;;;6.50;97.40;;;;;;5094895;28;20084;-83
2021/05/03 05:01:29;;;;;;;11.23;7.28;;;6.60;97.30;;;;;;5093296;28;20119;-84
2021/05/03 05:03:57;;;;;;;10.20;7.28;;;6.60;97.30;;;;;;5094452;28;20477;-84
2021/05/03 05:06:24;;;;;;;11.15;7.15;;;6.40;97.40;;;;;;5077603;28;20075;-84
2021/05/03 05:08:51;;;;;;;13.13;8.27;;;6.50;97.40;;;;;;5094921;28;20406;-83
2021/05/03 05:11:18;;;;;;;10.07;7.10;;;6.60;97.50;;;;;;5094112;28;20113;-83
2021/05/03 05:13:45;;;;;;;10.93;7.80;;;6.40;97.60;;;;;;5095904;28;20044;-83
2021/05/03 05:16:11;;;;;;;9.98;7.55;;;6.60;97.60;;;;;;5104256;28;20074;-83
2021/05/03 05:18:38;;;;;;;9.77;7.05;;;6.70;97.60;;;;;;5096900;28;20075;-84
2021/05/03 05:21:06;;;;;;;11.57;8.07;;;6.50;97.60;;;;;;5094570;28;20079;-82
2021/05/03 05:23:33;;;;;;;10.88;7.70;;;6.60;97.50;;;;;;5096833;28;20083;-83
2021/05/03 05:25:59;;;;;;;11.48;7.57;;;6.60;97.50;;;;;;5095441;28;20080;-83
2021/05/03 05:28:26;;;;;;;10.32;7.38;;;6.60;97.60;;;;;;5094331;28;20121;-82
2021/05/03 05:30:53;;;;;;;11.13;7.65;;;6.70;97.70;;;;;;5077402;28;20414;-82
2021/05/03 05:33:20;;;;;;;10.18;7.15;;;6.70;97.60;;;;;;5107559;28;20314;-82
2021/05/03 05:35:46;;;;;;;9.80;7.43;;;6.60;97.90;;;;;;5115726;28;20082;-83
2021/05/03 05:38:14;;;;;;;11.50;7.20;;;7.00;97.70;;;;;;5111166;28;20144;-83
2021/05/03 05:40:40;;;;;;;9.82;7.05;;;6.90;97.60;;;;;;5096962;28;20168;-83
2021/05/03 05:43:07;;;;;;;12.43;8.50;;;6.90;97.60;;;;;;5097268;28;20071;-84
2021/05/03 05:45:34;;;;;;;11.35;7.72;;;6.80;97.50;;;;;;5097166;28;20076;-83
2021/05/03 05:48:00;;;;;;;9.20;6.78;;;7.10;97.70;;;;;;5096465;28;20082;-83
2021/05/03 05:50:27;;;;;;;10.68;7.32;;;7.00;97.70;;;;;;5095497;28;20501;-84
2021/05/03 05:52:55;;;;;;;13.27;9.23;;;7.00;97.60;;;;;;5095879;28;20078;-82
2021/05/03 05:55:23;;;;;;;10.73;8.52;;;7.10;97.20;;;;;;5095777;28;20074;-83
2021/05/03 05:57:50;;;;;;;11.63;8.27;;;7.10;97.10;;;;;;5079224;28;20127;-83
2021/05/03 06:00:18;;;;;;;11.57;8.07;;;6.90;97.10;;;;;;5096461;28;20512;-83
2021/05/03 06:02:46;;;;;;;11.48;8.32;;;7.00;97.20;;;;;;5097114;28;20495;-83
2021/05/03 06:05:14;;;;;;;11.90;8.15;;;7.00;97.30;;;;;;5096055;28;20048;-83
2021/05/03 06:07:41;;;;;;;10.98;7.68;;;7.00;97.30;;;;;;5096040;28;20096;-83
2021/05/03 06:10:09;;;;;;;11.30;7.90;;;7.00;97.40;;;;;;5095048;28;20139;-81
2021/05/03 06:12:37;;;;;;;11.40;8.63;;;7.00;97.30;;;;;;5102304;28;20071;-83
2021/05/03 06:15:05;;;;;;;10.50;7.68;;;7.00;97.30;;;;;;5081531;28;20052;-83
2021/05/03 06:17:32;;;;;;;11.98;8.30;;;7.10;97.30;;;;;;5097925;28;20134;-83
2021/05/03 06:19:59;;;;;;;10.70;7.72;;;7.10;97.30;;;;;;5096615;28;20128;-83
2021/05/03 06:22:28;;;;;;;10.07;7.57;;;7.10;97.40;;;;;;5096218;28;20075;-83
2021/05/03 06:24:54;;;;;;;12.07;8.55;;;7.20;97.50;;;;;;5095980;28;20060;-83
2021/05/03 06:27:21;;;;;;;12.40;9.10;;;7.30;97.40;;;;;;5097063;28;20106;-83
2021/05/03 06:29:49;;;;;;;13.55;9.27;;;7.30;97.30;;;;;;5096199;28;20060;-83
2021/05/03 06:32:16;;;;;;;11.93;8.60;;;7.40;97.10;;;;;;5111960;28;20096;-83
2021/05/03 06:34:42;;;;;;;11.07;7.80;;;7.40;97.20;;;;;;5096114;28;20466;-82
2021/05/03 06:37:09;;;;;;;14.63;9.55;;;7.40;97.40;;;;;;5095727;28;20515;-84
2021/05/03 06:39:37;;;;;;;12.82;9.63;;;7.40;97.30;;;;;;5097703;28;20091;-83
2021/05/03 06:42:05;;;;;;;14.23;9.90;;;7.40;97.50;;;;;;5095702;28;20403;-82
2021/05/03 06:44:34;;;;;;;12.52;8.65;;;7.50;97.20;;;;;;5094419;28;20105;-82
2021/05/03 06:47:02;;;;;;;11.48;7.93;;;7.50;97.40;;;;;;5096929;28;20117;-83
2021/05/03 06:49:29;;;;;;;12.00;8.90;;;7.60;97.50;;;;;;5096704;28;20071;-83
2021/05/03 06:51:56;;;;;;;14.27;9.60;;;7.70;97.50;;;;;;5094239;28;20055;-82
2021/05/03 06:54:22;;;;;;;11.95;8.63;;;7.60;97.30;;;;;;5104943;28;20093;-82
2021/05/03 06:56:50;;;;;;;12.15;8.80;;;7.70;97.40;;;;;;5109983;28;20055;-83
2021/05/03 06:59:16;;;;;;;11.25;8.40;;;7.60;97.30;;;;;;5106502;28;20044;-83
2021/05/03 07:01:44;;;;;;;11.98;8.90;;;7.60;97.30;;;;;;5116064;28;20105;-83
2021/05/03 07:04:12;;;;;;;11.77;8.63;;;7.90;97.20;;;;;;5091936;28;20048;-84
2021/05/03 07:06:39;;;;;;;13.98;9.20;;;7.90;97.20;;;;;;5101827;28;20064;-82
2021/05/03 07:09:09;;;;;;;13.50;9.30;;;8.00;96.90;;;;;;5098111;28;20130;-82
2021/05/03 07:11:36;;;;;;;12.07;8.15;;;8.00;96.40;;;;;;5098936;28;20375;-84
2021/05/03 07:14:03;;;;;;;12.50;8.27;;;8.00;96.60;;;;;;5098755;28;20398;-83
2021/05/03 07:16:30;;;;;;;11.15;8.23;;;8.10;96.60;;;;;;5096900;28;20076;-84
2021/05/03 07:18:57;;;;;;;11.93;8.25;;;8.20;96.50;;;;;;5095074;28;20087;-81
2021/05/03 07:21:24;;;;;;;10.20;7.38;;;8.30;96.10;;;;;;5097759;28;20052;-84
2021/05/03 07:23:51;;;;;;;11.07;7.60;;;8.20;95.40;;;;;;5096296;28;20040;-83
2021/05/03 07:26:18;;;;;;;12.50;8.05;;;8.40;95.60;;;;;;5099920;28;20056;-83
2021/05/03 07:28:45;;;;;;;10.45;7.60;;;8.40;95.50;;;;;;5095501;28;20076;-82
2021/05/03 07:31:12;;;;;;;11.95;8.00;;;8.60;95.40;;;;;;5093936;28;20072;-83
2021/05/03 07:33:38;;;;;;;10.15;6.75;;;8.70;95.30;;;;;;5095076;28;20052;-82
2021/05/03 07:36:06;;;;;;;10.50;7.35;;;8.70;95.30;;;;;;5095011;28;20120;-83
2021/05/03 07:38:33;;;;;;;9.45;6.40;;;8.80;95.00;;;;;;5095624;28;20091;-83
2021/05/03 07:41:00;;;;;;;8.70;5.90;;;8.90;94.90;;;;;;5094325;28;20046;-81
2021/05/03 07:43:28;;;;;;;10.82;7.00;;;9.10;94.70;;;;;;5094978;28;20048;-81
2021/05/03 07:45:54;;;;;;;10.27;7.25;;;9.20;94.30;;;;;;5094728;28;20048;-84
2021/05/03 07:48:21;;;;;;;9.20;6.20;;;9.20;94.20;;;;;;5094015;28;20063;-81
2021/05/03 07:50:48;;;;;;;9.02;6.57;;;9.30;94.30;;;;;;5109525;28;20048;-81
2021/05/03 07:53:15;;;;;;;8.52;5.65;;;9.30;93.90;;;;;;5098906;28;20079;-81
2021/05/03 07:55:43;;;;;;;9.25;6.50;;;9.40;93.60;;;;;;5106577;28;20109;-83
2021/05/03 07:58:11;;;;;;;9.48;6.80;;;9.50;93.20;;;;;;5095629;28;20076;-80
2021/05/03 08:00:37;;;;;;;10.98;6.90;;;9.50;92.80;;;;;;5094058;28;20093;-81
2021/05/03 08:03:04;;;;;;;11.27;6.85;;;9.50;92.10;;;;;;5095705;28;20075;-82
2021/05/03 08:05:31;;;;;;;8.77;5.25;;;9.50;92.30;;;;;;5111256;28;20044;-82
2021/05/03 08:08:00;;;;;;;9.80;6.20;;;9.60;92.30;;;;;;5099261;28;20078;-82
2021/05/03 08:10:27;;;;;;;8.85;6.32;;;9.70;91.80;;;;;;5100379;28;20044;-82
2021/05/03 08:12:55;;;;;;;8.38;5.63;;;9.70;91.70;;;;;;5099226;28;20127;-83
2021/05/03 08:15:23;;;;;;;8.68;6.40;;;9.80;91.30;;;;;;5102534;28;20051;-83
2021/05/03 08:17:50;;;;;;;7.47;5.40;;;9.80;91.10;;;;;;5106568;28;20048;-82
2021/05/03 08:20:19;;;;;;;9.98;6.85;;;9.90;91.70;;;;;;5103938;28;20040;-83
2021/05/03 08:22:46;;;;;;;7.28;5.13;;;10.00;90.80;;;;;;5104673;28;20131;-82
2021/05/03 08:25:14;;;;;;;8.65;6.15;;;10.10;90.90;;;;;;5104745;28;20091;-83
2021/05/03 08:27:41;;;;;;;8.75;5.05;;;10.10;89.80;;;;;;5103664;28;20520;-82
2021/05/03 08:30:11;;;;;;;7.90;4.97;;;10.30;87.20;;;;;;5103656;28;20475;-82
2021/05/03 08:32:40;;;;;;;8.35;5.50;;;10.30;86.50;;;;;;5096417;28;20493;-82
2021/05/03 08:35:09;;;;;;;6.45;4.50;;;10.30;84.10;;;;;;5103651;28;20056;-82
2021/05/03 08:37:36;;;;;;;6.85;4.35;;;10.40;85.10;;;;;;5102250;28;20052;-81
2021/05/03 08:40:04;;;;;;;7.20;4.25;;;10.50;84.60;;;;;;5101553;28;20079;-83
2021/05/03 08:42:32;;;;;;;8.15;5.28;;;10.60;82.70;;;;;;5096302;28;20089;-81
2021/05/03 08:44:59;;;;;;;7.00;4.50;;;10.80;80.60;;;;;;5080847;28;20051;-81
2021/05/03 08:47:31;;;;;;;5.60;3.70;;;10.80;80.90;;;;;;5096699;28;20409;-81
2021/05/03 08:50:07;;;;;;;6.25;4.05;;;10.80;80.90;;;;;;5097385;28;20472;-81
2021/05/03 08:52:40;;;;;;;7.65;4.53;;;11.10;78.40;;;;;;5097480;28;20101;-82
2021/05/03 08:55:09;;;;;;;6.72;4.30;;;11.20;73.90;;;;;;5097595;28;20055;-82
2021/05/03 08:57:35;;;;;;;7.05;4.43;;;11.20;72.90;;;;;;5097560;28;20083;-82
2021/05/03 09:00:02;;;;;;;5.65;3.58;;;11.20;70.20;;;;;;5096784;28;20486;-82
2021/05/03 09:02:31;;;;;;;5.97;4.40;;;11.20;70.00;;;;;;5097128;28;20131;-81
2021/05/03 09:04:58;;;;;;;5.50;3.83;;;11.20;68.30;;;;;;5096519;28;20056;-82
2021/05/03 09:07:25;;;;;;;5.53;4.03;;;11.30;68.50;;;;;;5097369;28;20486;-81
2021/05/03 09:09:52;;;;;;;6.03;3.85;;;11.30;67.90;;;;;;5097504;28;20131;-84
2021/05/03 09:12:21;;;;;;;6.15;4.10;;;11.30;68.30;;;;;;5096459;28;20040;-83
2021/05/03 09:14:50;;;;;;;7.22;4.82;;;11.40;67.10;;;;;;5096295;28;20083;-82
2021/05/03 09:17:27;;;;;;;6.25;4.07;;;11.50;67.40;;;;;;5097174;28;20075;-83
2021/05/03 09:19:56;;;;;;;5.93;3.65;;;11.50;68.00;;;;;;5097811;28;20164;-83
2021/05/03 09:22:28;;;;;;;5.13;3.20;;;11.50;66.50;;;;;;5096313;28;20048;-82
2021/05/03 09:25:23;;;;;;;5.50;3.65;;;11.60;66.70;;;;;;5097334;28;20060;-83
2021/05/03 09:28:02;;;;;;;6.95;4.30;;;11.80;64.50;;;;;;5096089;28;20115;-82
2021/05/03 09:30:38;;;;;;;5.80;3.63;;;11.70;62.80;;;;;;5097135;28;20091;-82
2021/05/03 09:33:22;;;;;;;5.60;2.60;;;11.60;62.60;;;;;;5096104;28;20122;-83
2021/05/03 09:35:53;;;;;;;4.00;2.28;;;11.50;64.10;;;;;;5095644;28;20119;-84
2021/05/03 09:38:38;;;;;;;5.80;3.55;;;11.50;63.00;;;;;;5094190;28;20044;-83
2021/05/03 09:41:25;;;;;;;5.32;3.40;;;11.50;63.40;;;;;;5095333;28;20132;-81
2021/05/03 09:43:54;;;;;;;5.25;3.80;;;11.40;64.40;;;;;;5095545;28;20463;-85
2021/05/03 09:46:38;;;;;;;5.63;4.00;;;11.40;64.00;;;;;;5094658;28;20048;-84
2021/05/03 09:49:08;;;;;;;6.40;3.40;;;11.20;66.60;;;;;;5110445;28;20044;-83
2021/05/03 09:51:41;;;;;;;6.35;3.25;;;11.10;66.50;;;;;;5095095;28;20489;-83
2021/05/03 09:54:12;;;;;;;6.18;3.55;;;11.00;69.00;;;;;;5094654;28;20032;-83
2021/05/03 09:56:59;;;;;;;4.95;2.95;;;11.00;71.10;;;;;;5093187;28;20060;-84
2021/05/03 09:59:36;;;;;;;5.95;3.65;;;11.00;72.40;;;;;;5092272;28;20052;-84
2021/05/03 10:02:15;;;;;;;4.88;3.28;;;11.00;72.80;;;;;;5093228;28;20429;-84
2021/05/03 10:04:52;;;;;;;4.50;2.70;;;11.00;72.50;;;;;;5093938;28;20481;-81
2021/05/03 10:07:21;;;;;;;4.57;2.63;;;11.00;73.70;;;;;;5093830;28;20066;-79
2021/05/03 10:09:51;;;;;;;4.75;3.00;;;11.10;75.60;;;;;;5093086;28;20477;-80
2021/05/03 10:12:19;;;;;;;3.78;2.50;;;11.10;74.90;;;;;;5093041;28;20101;-80
2021/05/03 10:14:46;;;;;;;4.95;2.78;;;11.20;74.00;;;;;;5093536;28;20048;-79
2021/05/03 10:17:16;;;;;;;5.25;3.33;;;11.40;73.30;;;;;;5092173;28;20051;-78
2021/05/03 10:19:44;;;;;;;4.97;3.30;;;11.50;69.00;;;;;;5093157;28;20391;-79
2021/05/03 10:22:17;;;;;;;4.90;2.80;;;11.50;68.40;;;;;;5100581;28;20065;-79
2021/05/03 10:24:48;;;;;;;4.97;2.95;;;11.60;69.70;;;;;;5102642;28;20048;-79
2021/05/03 10:27:17;;;;;;;3.90;2.40;;;11.70;69.80;;;;;;5098731;28;20071;-76
2021/05/03 10:29:45;;;;;;;4.53;2.25;;;11.90;70.70;;;;;;5093118;28;20087;-82
2021/05/03 10:32:14;;;;;;;5.30;2.90;;;12.00;71.30;;;;;;5093179;28;20520;-83
2021/05/03 10:34:48;;;;;;;4.35;2.50;;;12.10;71.60;;;;;;5093232;28;20082;-82
2021/05/03 10:37:49;;;;;;;5.25;3.20;;;12.20;71.90;;;;;;5093548;28;20497;-85
2021/05/03 10:40:43;;;;;;;4.20;2.60;;;12.40;69.50;;;;;;5094220;28;20040;-83
2021/05/03 10:43:27;;;;;;;4.45;2.75;;;12.60;70.40;;;;;;5102016;28;20519;-83
2021/05/03 10:48:55;;;;;;;4.70;2.67;;;12.80;70.80;;;;;;5061688;28;20051;-83
2021/05/03 10:51:42;;;;;;;4.00;2.50;;;12.90;69.00;;;;;;5093276;28;20090;-81
2021/05/03 10:54:33;;;;;;;4.72;3.30;;;13.00;69.50;;;;;;5058957;28;20047;-82
2021/05/03 10:57:04;;;;;;;6.63;3.20;;;13.10;67.60;;;;;;5093146;28;20044;-82
2021/05/03 10:59:47;;;;;;;5.10;2.75;;;13.10;66.80;;;;;;5092458;28;20063;-83
2021/05/03 11:02:17;;;;;;;5.13;3.30;;;13.10;66.80;;;;;;5093211;28;20083;-82
2021/05/03 11:05:27;;;;;;;3.83;2.50;;;13.20;65.80;;;;;;5095927;28;20108;-84
2021/05/03 11:08:31;;;;;;;3.95;2.28;;;13.20;65.10;;;;;;5075132;28;20064;-83
2021/05/03 11:11:08;;;;;;;4.45;2.70;;;13.40;60.90;;;;;;5093753;28;20150;-81
2021/05/03 11:14:01;;;;;;;4.28;2.50;;;13.40;62.10;;;;;;5092503;28;20075;-82
2021/05/03 11:16:51;;;;;;;4.75;2.50;;;13.50;63.10;;;;;;5092380;28;20056;-83
2021/05/03 11:20:04;;;;;;;4.40;2.70;;;13.60;61.80;;;;;;5073025;28;20487;-84
2021/05/03 11:22:43;;;;;;;4.82;2.42;;;13.70;59.80;;;;;;5076265;28;20049;-87
2021/05/03 11:25:12;;;;;;;4.22;2.33;;;13.80;59.10;;;;;;5089388;28;20055;-86
2021/05/03 11:27:49;;;;;;;4.05;2.40;;;13.90;57.80;;;;;;5111947;28;20293;-90
2021/05/03 11:30:28;;;;;;;5.07;2.80;;;14.00;57.70;;;;;;5110139;28;20052;-89
2021/05/03 11:32:59;;;;;;;4.30;2.38;;;14.00;57.20;;;;;;5114447;28;20044;-91
2021/05/03 11:35:31;;;;;;;4.63;2.50;;;14.10;57.40;;;;;;5109786;28;20052;-88
2021/05/03 11:38:04;;;;;;;3.83;2.03;;;14.10;53.50;;;;;;5106775;28;20066;-90
2021/05/03 11:40:53;;;;;;;4.43;2.70;;;14.10;52.90;;;;;;5099595;28;20055;-90
2021/05/03 11:46:26;;;;;;;3.85;2.10;;;14.00;50.40;;;;;;5090911;28;20103;-89
2021/05/03 11:48:54;;;;;;;3.70;2.30;;;13.90;51.60;;;;;;5104558;28;20057;-89
2021/05/03 11:51:21;;;;;;;5.15;2.70;;;13.80;50.10;;;;;;5105218;28;20048;-89
2021/05/03 11:53:48;;;;;;;4.25;2.10;;;13.80;50.20;;;;;;5105527;28;20032;-90
2021/05/03 11:56:24;;;;;;;3.40;2.08;;;13.70;50.50;;;;;;5093078;28;20067;-88
2021/05/03 11:58:53;;;;;;;3.75;2.10;;;13.80;49.60;;;;;;5093630;28;20048;-90
2021/05/03 12:01:23;;;;;;;3.88;1.83;;;13.80;50.30;;;;;;5093660;28;20493;-91
2021/05/03 12:03:56;;;;;;;3.70;2.00;;;13.90;50.30;;;;;;5093013;28;20125;-90
2021/05/03 12:06:35;;;;;;;4.35;2.20;;;13.90;49.60;;;;;;5092945;28;20056;-90
2021/05/03 12:09:05;;;;;;;4.00;1.92;;;13.90;48.10;;;;;;5095310;28;20052;-89
2021/05/03 12:11:32;;;;;;;3.25;1.45;;;13.90;49.00;;;;;;5100311;28;20040;-87
2021/05/03 12:13:58;;;;;;;3.55;1.60;;;13.90;49.00;;;;;;5098911;28;20051;-90
2021/05/03 12:16:38;;;;;;;3.67;2.03;;;13.90;48.90;;;;;;5095010;28;20088;-88
2021/05/03 12:19:13;;;;;;;3.30;1.80;;;14.00;49.20;;;;;;5078809;28;20048;-91
2021/05/03 12:21:40;;;;;;;4.05;2.33;;;14.10;49.90;;;;;;5084493;28;20079;-92
2021/05/03 12:24:19;;;;;;;3.45;1.88;;;14.20;46.60;;;;;;5084386;28;20040;-90
2021/05/03 12:26:57;;;;;;;2.80;1.40;;;14.30;47.40;;;;;;5092657;28;20059;-89
2021/05/03 12:29:27;;;;;;;3.15;1.80;;;14.50;48.30;;;;;;5095695;28;20092;-91
2021/05/03 12:31:55;;;;;;;3.83;1.90;;;14.70;47.30;;;;;;5111786;28;20051;-90
2021/05/03 12:34:25;;;;;;;2.80;1.40;;;14.80;47.10;;;;;;5111287;28;20056;-90
2021/05/03 12:37:13;;;;;;;4.18;1.98;;;15.00;48.10;;;;;;5103007;28;20060;-89
2021/05/03 12:40:00;;;;;;;3.22;1.85;;;15.30;48.10;;;;;;5097996;28;20102;-87
2021/05/03 12:42:37;;;;;;;2.90;1.60;;;15.30;44.40;;;;;;5099872;28;20125;-90
2021/05/03 12:45:19;;;;;;;4.45;2.10;;;15.30;44.60;;;;;;5081195;28;20040;-89
2021/05/03 12:48:09;;;;;;;2.92;1.45;;;15.30;44.50;;;;;;5101373;28;20072;-89
2021/05/03 12:50:56;;;;;;;4.00;1.77;;;15.20;44.40;;;;;;5107649;28;20040;-86
2021/05/03 12:53:28;;;;;;;4.78;1.88;;;15.20;45.60;;;;;;5106352;28;20051;-86
2021/05/03 12:56:12;;;;;;;3.67;1.55;;;15.20;44.80;;;;;;5105616;28;20044;-86
2021/05/03 12:58:52;;;;;;;3.60;1.70;;;15.10;45.70;;;;;;5104036;28;20056;-83
2021/05/03 13:01:44;;;;;;;2.70;1.20;;;15.20;46.20;;;;;;5097621;28;20048;-80
2021/05/03 13:04:37;;;;;;;3.00;1.40;;;15.50;46.00;;;;;;5095367;28;20048;-80
2021/05/03 13:24:48;;;;;;;3.00;1.50;;;16.80;42.40;;;;;;5075638;28;20055;-85
2021/05/03 13:30:04;;;;;;;4.40;1.60;;;16.90;40.20;;;;;;5074513;28;20521;-86
2021/05/03 13:32:32;;;;;;;3.20;1.63;;;16.80;40.60;;;;;;5074595;28;20091;-87
2021/05/03 13:35:02;;;;;;;3.22;1.40;;;16.80;39.80;;;;;;5073614;28;20076;-86
2021/05/03 13:37:29;;;;;;;1.77;1.08;;;16.90;41.40;;;;;;5092351;28;20056;-85
2021/05/03 13:39:56;;;;;;;2.92;1.27;;;17.00;42.20;;;;;;5093545;28;20136;-85